Time;durP1;ratioP1;P1;durP2;ratioP2;P2;SDS_P1;SDS_P2;PMS_P1;PMS_P2;Temp;Humidity;BMP_temperature;BMP_pressure;BME280_temperature;BME280_humidity;BME280_pressure;Samples;Min_cycle;Max_cycle;Signal;HPM_P1;HPM_P2
2023/12/16 04:33:57;;;;;;;;;30.75;25.50;;;;;;;;5996590;22;46773;-72
2023/12/16 04:36:23;;;;;;;;;28.75;22.50;;;;;;;;5054487;28;45694;-70
2023/12/16 04:38:48;;;;;;;;;23.00;20.50;;;;;;;;5056051;28;46289;-70
2023/12/16 04:41:14;;;;;;;;;21.00;19.00;;;;;;;;5056695;28;45443;-70
2023/12/16 04:43:39;;;;;;;;;23.25;21.75;;;;;;;;5058613;28;45321;-70
2023/12/16 04:46:05;;;;;;;;;25.50;23.25;;;;;;;;5055333;28;45696;-72
2023/12/16 04:48:30;;;;;;;;;26.00;23.75;;;;;;;;5058125;28;45350;-71
2023/12/16 04:50:56;;;;;;;;;22.75;19.50;;;;;;;;5057802;28;45311;-71
2023/12/16 04:53:21;;;;;;;;;23.50;21.25;;;;;;;;5059782;28;45492;-72
2023/12/16 04:55:46;;;;;;;;;30.25;23.50;;;;;;;;5054335;28;45482;-72
2023/12/16 04:58:11;;;;;;;;;29.75;24.00;;;;;;;;5060062;28;45198;-71
2023/12/16 05:00:36;;;;;;;;;31.50;27.50;;;;;;;;5054083;28;45425;-71
2023/12/16 05:03:03;;;;;;;;;22.00;21.50;;;;;;;;5060344;28;44761;-71
2023/12/16 05:05:28;;;;;;;;;28.00;26.00;;;;;;;;5054901;28;46024;-71
2023/12/16 05:07:53;;;;;;;;;18.25;17.25;;;;;;;;5061879;28;47142;-71
2023/12/16 05:10:19;;;;;;;;;26.00;23.00;;;;;;;;5056187;28;45465;-72
2023/12/16 05:12:44;;;;;;;;;23.00;21.50;;;;;;;;5060697;28;45428;-72
2023/12/16 05:15:09;;;;;;;;;28.25;24.25;;;;;;;;5057439;28;45370;-70
2023/12/16 05:17:34;;;;;;;;;33.50;28.75;;;;;;;;5060169;28;46115;-71
2023/12/16 05:20:00;;;;;;;;;27.00;23.25;;;;;;;;5051175;28;45452;-72
2023/12/16 05:22:25;;;;;;;;;36.25;23.25;;;;;;;;5056774;28;45390;-71
2023/12/16 05:24:50;;;;;;;;;26.00;23.75;;;;;;;;5054566;28;45254;-70
2023/12/16 05:27:15;;;;;;;;;27.50;24.00;;;;;;;;5056318;28;46441;-71
2023/12/16 05:29:40;;;;;;;;;21.75;18.50;;;;;;;;5056647;28;45359;-71
2023/12/16 05:32:06;;;;;;;;;33.25;24.00;;;;;;;;5056096;28;45338;-70
2023/12/16 05:34:31;;;;;;;;;22.75;21.25;;;;;;;;5053509;28;45289;-70
2023/12/16 05:36:56;;;;;;;;;21.50;17.50;;;;;;;;5059277;28;45231;-70
2023/12/16 05:39:21;;;;;;;;;20.00;17.75;;;;;;;;5052139;28;45413;-70
2023/12/16 05:41:46;;;;;;;;;24.00;23.25;;;;;;;;5054269;28;45351;-71
2023/12/16 05:44:12;;;;;;;;;21.25;21.00;;;;;;;;5054665;28;45244;-71
2023/12/16 05:46:38;;;;;;;;;20.75;18.25;;;;;;;;5056598;28;45272;-71
2023/12/16 05:49:03;;;;;;;;;23.25;19.75;;;;;;;;5069080;28;45239;-71
2023/12/16 05:51:28;;;;;;;;;21.25;21.25;;;;;;;;5056585;28;45296;-71
2023/12/16 05:53:54;;;;;;;;;22.75;17.50;;;;;;;;5057384;28;45508;-71
2023/12/16 05:56:19;;;;;;;;;16.00;15.50;;;;;;;;5054957;28;45421;-71
2023/12/16 05:58:44;;;;;;;;;23.00;16.25;;;;;;;;5073256;28;45362;-71
2023/12/16 06:01:09;;;;;;;;;17.00;16.75;;;;;;;;5054643;28;45303;-71
2023/12/16 06:03:34;;;;;;;;;22.00;19.75;;;;;;;;5056015;28;45536;-71
2023/12/16 06:06:00;;;;;;;;;19.75;16.50;;;;;;;;5054514;28;45809;-71
2023/12/16 06:08:25;;;;;;;;;16.00;16.00;;;;;;;;5058591;28;45311;-71
2023/12/16 06:10:50;;;;;;;;;20.75;15.75;;;;;;;;5052245;28;45591;-71
2023/12/16 06:13:15;;;;;;;;;21.00;16.00;;;;;;;;5058920;28;45117;-71
2023/12/16 06:15:40;;;;;;;;;18.75;16.75;;;;;;;;5053470;28;45117;-71
2023/12/16 06:18:06;;;;;;;;;21.00;21.00;;;;;;;;5057232;28;45263;-71
2023/12/16 06:20:31;;;;;;;;;20.75;19.75;;;;;;;;5055917;28;45176;-71
2023/12/16 06:22:56;;;;;;;;;20.00;15.50;;;;;;;;5056710;28;45726;-72
2023/12/16 06:25:22;;;;;;;;;17.00;15.50;;;;;;;;5052095;28;46824;-72
2023/12/16 06:27:47;;;;;;;;;17.75;15.00;;;;;;;;5058007;28;44575;-71
2023/12/16 06:30:13;;;;;;;;;25.00;19.50;;;;;;;;5050689;28;45200;-71
2023/12/16 06:32:38;;;;;;;;;16.75;16.75;;;;;;;;5057816;28;45243;-71
2023/12/16 06:35:03;;;;;;;;;23.50;19.00;;;;;;;;5052172;28;45153;-71
2023/12/16 06:37:28;;;;;;;;;18.00;16.25;;;;;;;;5069226;28;45282;-71
2023/12/16 06:39:54;;;;;;;;;17.75;15.75;;;;;;;;5049196;28;45294;-71
2023/12/16 06:42:20;;;;;;;;;24.25;21.25;;;;;;;;5057307;28;46063;-72
2023/12/16 06:44:45;;;;;;;;;24.50;18.00;;;;;;;;5050458;28;47848;-71
2023/12/16 06:47:11;;;;;;;;;26.50;22.50;;;;;;;;5056803;28;45480;-72
2023/12/16 06:49:37;;;;;;;;;23.50;21.00;;;;;;;;5050689;28;45644;-71
2023/12/16 06:52:02;;;;;;;;;22.75;20.75;;;;;;;;5058015;28;45384;-71
2023/12/16 06:54:27;;;;;;;;;26.75;22.75;;;;;;;;5052367;28;45355;-71
2023/12/16 06:56:52;;;;;;;;;21.25;20.50;;;;;;;;5057162;28;45326;-71
2023/12/16 06:59:17;;;;;;;;;22.25;21.75;;;;;;;;5053556;28;45417;-72
2023/12/16 07:01:43;;;;;;;;;20.75;20.50;;;;;;;;5056665;28;45817;-71
2023/12/16 07:04:08;;;;;;;;;30.00;25.00;;;;;;;;5054207;28;45297;-71
2023/12/16 07:06:34;;;;;;;;;31.00;27.25;;;;;;;;5056606;28;45332;-71
2023/12/16 07:08:59;;;;;;;;;34.75;24.75;;;;;;;;5055524;28;45333;-71
2023/12/16 07:11:24;;;;;;;;;26.00;25.00;;;;;;;;5054838;28;45360;-70
2023/12/16 07:13:50;;;;;;;;;24.00;20.25;;;;;;;;5053266;28;47081;-70
2023/12/16 07:16:16;;;;;;;;;22.75;22.25;;;;;;;;5056066;28;45271;-71
2023/12/16 07:18:41;;;;;;;;;25.75;21.00;;;;;;;;5055864;28;45268;-71
2023/12/16 07:21:07;;;;;;;;;21.75;20.00;;;;;;;;5056346;28;45344;-71
2023/12/16 07:23:35;;;;;;;;;27.00;23.75;;;;;;;;5056854;28;45049;-71
2023/12/16 07:26:03;;;;;;;;;24.75;19.50;;;;;;;;5057329;28;45672;-71
2023/12/16 07:28:28;;;;;;;;;23.50;22.75;;;;;;;;5063514;28;45374;-71
2023/12/16 07:30:53;;;;;;;;;26.00;22.75;;;;;;;;5050650;28;45659;-71
2023/12/16 07:33:19;;;;;;;;;26.00;22.50;;;;;;;;5057694;28;45361;-71
2023/12/16 07:35:44;;;;;;;;;29.50;22.00;;;;;;;;5050087;28;45426;-72
2023/12/16 07:38:09;;;;;;;;;26.50;23.50;;;;;;;;5056652;28;45391;-72
2023/12/16 07:40:35;;;;;;;;;27.00;24.00;;;;;;;;5051879;28;45485;-71
2023/12/16 07:43:01;;;;;;;;;33.25;29.50;;;;;;;;5057521;28;45304;-71
2023/12/16 07:45:26;;;;;;;;;55.25;40.50;;;;;;;;5051510;28;45162;-71
2023/12/16 07:47:51;;;;;;;;;64.50;45.50;;;;;;;;5057106;28;45275;-72
2023/12/16 07:50:19;;;;;;;;;61.75;44.00;;;;;;;;5051466;28;45568;-71
2023/12/16 07:52:46;;;;;;;;;66.25;48.75;;;;;;;;5057456;28;45836;-71
2023/12/16 07:55:11;;;;;;;;;48.50;37.25;;;;;;;;5051088;28;45472;-71
2023/12/16 07:57:36;;;;;;;;;50.75;40.50;;;;;;;;5058173;28;45231;-71
2023/12/16 08:00:02;;;;;;;;;90.00;65.00;;;;;;;;5050571;28;45862;-71
2023/12/16 08:02:27;;;;;;;;;75.25;56.75;;;;;;;;5055483;28;46906;-71
2023/12/16 08:04:53;;;;;;;;;67.75;47.25;;;;;;;;5052466;28;45380;-71
2023/12/16 08:07:18;;;;;;;;;69.00;50.50;;;;;;;;5061334;28;45937;-71
2023/12/16 08:09:43;;;;;;;;;67.50;50.25;;;;;;;;5055196;28;45441;-71
2023/12/16 08:12:08;;;;;;;;;62.50;48.00;;;;;;;;5059890;28;45466;-70
2023/12/16 08:14:34;;;;;;;;;63.00;49.25;;;;;;;;5058198;28;46252;-71
2023/12/16 08:16:59;;;;;;;;;55.75;45.25;;;;;;;;5060306;28;45280;-72
2023/12/16 08:19:24;;;;;;;;;41.50;37.25;;;;;;;;5059130;28;44932;-71
2023/12/16 08:21:50;;;;;;;;;33.75;29.25;;;;;;;;5054319;28;46373;-72
2023/12/16 08:24:15;;;;;;;;;46.50;40.75;;;;;;;;5056701;28;45496;-71
2023/12/16 08:26:40;;;;;;;;;50.00;42.25;;;;;;;;5057761;28;45219;-72
2023/12/16 08:29:06;;;;;;;;;36.75;32.50;;;;;;;;5055052;28;46143;-71
2023/12/16 08:31:31;;;;;;;;;40.75;33.75;;;;;;;;5057160;28;45424;-71
2023/12/16 08:33:56;;;;;;;;;50.50;41.25;;;;;;;;5055447;28;45504;-71
2023/12/16 08:36:21;;;;;;;;;33.50;32.50;;;;;;;;5057303;28;45571;-71
2023/12/16 08:38:46;;;;;;;;;42.75;36.25;;;;;;;;5073900;28;47532;-71
2023/12/16 08:41:12;;;;;;;;;43.75;37.75;;;;;;;;5059014;28;45839;-70
2023/12/16 08:43:38;;;;;;;;;45.50;37.00;;;;;;;;5058959;28;45225;-71
2023/12/16 08:46:03;;;;;;;;;50.00;40.00;;;;;;;;5054781;28;44871;-70
2023/12/16 08:48:28;;;;;;;;;40.25;35.75;;;;;;;;5059921;28;45501;-71
2023/12/16 08:50:56;;;;;;;;;42.25;36.25;;;;;;;;5057768;28;46280;-72
2023/12/16 08:53:22;;;;;;;;;37.50;33.50;;;;;;;;5060757;28;45258;-71
2023/12/16 08:55:47;;;;;;;;;37.25;33.00;;;;;;;;5054614;28;45216;-72
2023/12/16 08:58:12;;;;;;;;;40.75;32.50;;;;;;;;5060229;28;45545;-71
2023/12/16 09:00:37;;;;;;;;;35.00;25.50;;;;;;;;5054281;28;45382;-71
2023/12/16 09:03:02;;;;;;;;;34.25;31.50;;;;;;;;5060459;28;45297;-71
2023/12/16 09:05:28;;;;;;;;;37.75;35.25;;;;;;;;5054891;28;45398;-71
2023/12/16 09:07:53;;;;;;;;;40.25;36.25;;;;;;;;5058313;28;45721;-72
2023/12/16 09:10:18;;;;;;;;;41.00;35.50;;;;;;;;5056929;28;46418;-72
2023/12/16 09:12:44;;;;;;;;;42.00;36.25;;;;;;;;5058185;28;45381;-72
2023/12/16 09:15:09;;;;;;;;;30.50;27.25;;;;;;;;5053549;28;45375;-73
2023/12/16 09:17:34;;;;;;;;;41.75;36.00;;;;;;;;5056218;28;45434;-72
2023/12/16 09:20:00;;;;;;;;;40.50;35.75;;;;;;;;5057892;28;45332;-73
2023/12/16 09:22:25;;;;;;;;;42.50;37.25;;;;;;;;5058647;28;45278;-73
2023/12/16 09:24:50;;;;;;;;;37.00;33.25;;;;;;;;5058698;28;45218;-73
2023/12/16 09:27:15;;;;;;;;;30.75;28.00;;;;;;;;5059515;28;45262;-73
2023/12/16 09:29:40;;;;;;;;;41.25;36.50;;;;;;;;5056964;28;46011;-74
2023/12/16 09:32:06;;;;;;;;;32.25;30.50;;;;;;;;5053525;28;45275;-73
2023/12/16 09:34:31;;;;;;;;;33.00;29.00;;;;;;;;5056945;28;45206;-72
2023/12/16 09:36:57;;;;;;;;;42.50;34.00;;;;;;;;5055427;28;46085;-73
2023/12/16 09:39:22;;;;;;;;;42.75;36.75;;;;;;;;5056523;28;45380;-73
2023/12/16 09:41:48;;;;;;;;;37.00;34.25;;;;;;;;5059782;28;45335;-73
2023/12/16 09:44:16;;;;;;;;;36.75;30.25;;;;;;;;5053525;28;45247;-73
2023/12/16 09:46:42;;;;;;;;;40.50;35.50;;;;;;;;5054945;28;45508;-73
2023/12/16 09:49:07;;;;;;;;;37.50;31.25;;;;;;;;5053907;28;45441;-74
2023/12/16 09:51:33;;;;;;;;;35.50;33.00;;;;;;;;5056528;28;45306;-73
2023/12/16 09:53:58;;;;;;;;;37.00;33.25;;;;;;;;5055876;28;45458;-74
2023/12/16 09:56:26;;;;;;;;;29.00;28.25;;;;;;;;5058835;28;45411;-73
2023/12/16 09:58:51;;;;;;;;;44.75;33.75;;;;;;;;5057559;28;45177;-74
2023/12/16 10:01:17;;;;;;;;;37.25;31.00;;;;;;;;5056846;28;45251;-74
2023/12/16 10:03:44;;;;;;;;;39.00;34.00;;;;;;;;5057428;28;45270;-75
2023/12/16 10:06:09;;;;;;;;;33.50;26.00;;;;;;;;5055995;28;45228;-75
2023/12/16 10:08:35;;;;;;;;;35.25;30.25;;;;;;;;5057972;28;45549;-75
2023/12/16 10:11:02;;;;;;;;;30.50;29.50;;;;;;;;5055566;28;45260;-75
2023/12/16 10:13:28;;;;;;;;;39.00;33.50;;;;;;;;5059001;28;45327;-73
2023/12/16 10:15:53;;;;;;;;;37.75;34.75;;;;;;;;5055871;28;45109;-73
2023/12/16 10:18:18;;;;;;;;;33.50;26.75;;;;;;;;5059290;28;45700;-73
2023/12/16 10:20:43;;;;;;;;;27.50;24.50;;;;;;;;5056046;28;45322;-72
2023/12/16 10:23:10;;;;;;;;;31.75;27.75;;;;;;;;5059611;28;45288;-73
2023/12/16 10:25:36;;;;;;;;;30.50;27.25;;;;;;;;5052640;28;45177;-72
2023/12/16 10:28:02;;;;;;;;;27.00;23.00;;;;;;;;5058931;28;45245;-72
2023/12/16 10:30:27;;;;;;;;;19.25;17.00;;;;;;;;5053996;28;45230;-73
2023/12/16 10:32:56;;;;;;;;;23.00;18.75;;;;;;;;5058683;28;45414;-72
2023/12/16 10:35:23;;;;;;;;;22.75;20.75;;;;;;;;5052971;28;45311;-72
2023/12/16 10:37:49;;;;;;;;;20.00;17.50;;;;;;;;5059040;28;45380;-72
2023/12/16 10:40:14;;;;;;;;;24.50;21.50;;;;;;;;5054090;28;45378;-72
2023/12/16 10:42:40;;;;;;;;;20.50;18.75;;;;;;;;5058769;28;45444;-73
2023/12/16 10:45:05;;;;;;;;;14.00;13.25;;;;;;;;5051899;28;45436;-71
2023/12/16 10:47:31;;;;;;;;;26.50;19.25;;;;;;;;5058160;28;45220;-72
2023/12/16 10:49:58;;;;;;;;;13.25;12.00;;;;;;;;5052722;28;45496;-71
2023/12/16 10:52:23;;;;;;;;;17.50;17.25;;;;;;;;5058468;28;45212;-70
2023/12/16 10:54:53;;;;;;;;;20.50;18.50;;;;;;;;5051037;28;47357;-72
2023/12/16 10:57:23;;;;;;;;;16.25;16.00;;;;;;;;5058492;28;45429;-72
2023/12/16 11:00:14;;;;;;;;;16.25;13.00;;;;;;;;5053195;28;45242;-73
2023/12/16 11:03:01;;;;;;;;;13.50;13.50;;;;;;;;5026611;28;45307;-71
2023/12/16 11:05:29;;;;;;;;;15.25;14.00;;;;;;;;5054999;28;45213;-72
2023/12/16 11:07:55;;;;;;;;;21.00;14.75;;;;;;;;5058237;28;45154;-72
2023/12/16 11:10:21;;;;;;;;;11.25;11.25;;;;;;;;5053324;28;45450;-72
2023/12/16 11:12:46;;;;;;;;;20.25;14.25;;;;;;;;5057925;28;45449;-72
2023/12/16 11:15:12;;;;;;;;;20.25;15.00;;;;;;;;5054959;28;45416;-71
2023/12/16 11:17:47;;;;;;;;;12.25;11.50;;;;;;;;5055892;28;46445;-73
2023/12/16 11:20:20;;;;;;;;;21.25;15.00;;;;;;;;5055538;28;45387;-72
2023/12/16 11:22:48;;;;;;;;;15.25;14.00;;;;;;;;5057123;28;45425;-71
2023/12/16 11:25:20;;;;;;;;;17.50;13.50;;;;;;;;5052344;28;45497;-72
2023/12/16 11:27:49;;;;;;;;;16.25;14.50;;;;;;;;5071843;28;48329;-72
2023/12/16 11:30:15;;;;;;;;;16.50;14.00;;;;;;;;5050306;28;45529;-71
2023/12/16 11:32:42;;;;;;;;;10.50;9.25;;;;;;;;5055249;28;45518;-71
2023/12/16 11:35:07;;;;;;;;;14.25;12.75;;;;;;;;5050780;28;45232;-71
2023/12/16 11:37:36;;;;;;;;;14.50;12.75;;;;;;;;5055505;28;47234;-71
2023/12/16 11:40:03;;;;;;;;;13.75;12.25;;;;;;;;5048347;28;45442;-71
2023/12/16 11:42:43;;;;;;;;;18.00;15.00;;;;;;;;5072739;28;45694;-72
2023/12/16 11:45:09;;;;;;;;;14.00;11.00;;;;;;;;5052819;28;45458;-71
2023/12/16 11:47:34;;;;;;;;;13.25;13.25;;;;;;;;5059511;28;45774;-71
2023/12/16 11:49:59;;;;;;;;;12.00;12.00;;;;;;;;5055452;28;45264;-71
2023/12/16 11:52:24;;;;;;;;;12.00;12.00;;;;;;;;5060411;28;45359;-71
2023/12/16 11:54:59;;;;;;;;;18.25;14.00;;;;;;;;5056903;28;45383;-70
2023/12/16 11:57:25;;;;;;;;;13.75;12.25;;;;;;;;5061910;28;45258;-70
2023/12/16 11:59:51;;;;;;;;;12.00;11.50;;;;;;;;5055932;28;45406;-71
2023/12/16 12:02:16;;;;;;;;;14.50;12.50;;;;;;;;5061822;28;46453;-70
2023/12/16 12:04:42;;;;;;;;;12.00;10.75;;;;;;;;5057006;28;45457;-71
2023/12/16 12:07:07;;;;;;;;;17.00;11.00;;;;;;;;5063649;28;47392;-70
2023/12/16 12:09:32;;;;;;;;;12.25;10.25;;;;;;;;5060460;28;45415;-70
2023/12/16 12:11:58;;;;;;;;;15.00;13.75;;;;;;;;5059044;28;45532;-70
2023/12/16 12:14:26;;;;;;;;;12.25;12.25;;;;;;;;5056741;28;45370;-70
2023/12/16 12:16:51;;;;;;;;;6.25;5.75;;;;;;;;5059903;28;45830;-71
2023/12/16 12:19:17;;;;;;;;;6.50;6.00;;;;;;;;5060878;28;45396;-70
2023/12/16 12:21:42;;;;;;;;;9.00;6.25;;;;;;;;5059229;28;45386;-70
2023/12/16 12:24:07;;;;;;;;;11.50;9.25;;;;;;;;5058986;28;45137;-71
2023/12/16 12:26:32;;;;;;;;;7.00;7.00;;;;;;;;5059246;28;47026;-71
2023/12/16 12:28:58;;;;;;;;;11.75;10.00;;;;;;;;5059470;28;45460;-70
2023/12/16 12:31:23;;;;;;;;;9.75;7.00;;;;;;;;5060449;28;45347;-70
2023/12/16 12:33:49;;;;;;;;;8.00;7.00;;;;;;;;5057459;28;45521;-70
2023/12/16 12:36:14;;;;;;;;;12.50;11.00;;;;;;;;5054280;28;46754;-70
2023/12/16 12:38:40;;;;;;;;;8.00;8.00;;;;;;;;5060132;28;45215;-70
2023/12/16 12:41:06;;;;;;;;;7.75;6.00;;;;;;;;5050133;28;45334;-70
2023/12/16 12:43:33;;;;;;;;;12.00;11.25;;;;;;;;5054889;28;44809;-70
2023/12/16 12:46:12;;;;;;;;;11.75;9.75;;;;;;;;5055316;28;46157;-70
2023/12/16 12:48:38;;;;;;;;;13.75;9.50;;;;;;;;5061513;28;44898;-71
2023/12/16 12:51:04;;;;;;;;;11.00;9.25;;;;;;;;5055651;28;45404;-70
2023/12/16 12:53:30;;;;;;;;;13.25;10.75;;;;;;;;5060153;28;45403;-70
2023/12/16 12:55:55;;;;;;;;;8.50;8.50;;;;;;;;5054535;28;45160;-70
2023/12/16 12:58:22;;;;;;;;;8.00;7.25;;;;;;;;5060409;28;45230;-71
2023/12/16 13:00:49;;;;;;;;;8.00;6.00;;;;;;;;5054939;28;45433;-70
2023/12/16 13:03:14;;;;;;;;;9.50;7.50;;;;;;;;5060221;28;45507;-70
2023/12/16 13:05:41;;;;;;;;;7.75;7.00;;;;;;;;5054722;28;45090;-70
2023/12/16 13:08:08;;;;;;;;;11.75;9.50;;;;;;;;5055207;28;45251;-70
2023/12/16 13:10:34;;;;;;;;;10.75;8.25;;;;;;;;5053214;28;45401;-71
2023/12/16 13:12:59;;;;;;;;;9.50;7.00;;;;;;;;5059611;28;45456;-71
2023/12/16 13:15:25;;;;;;;;;15.25;12.25;;;;;;;;5053608;28;46991;-72
2023/12/16 13:17:50;;;;;;;;;10.00;7.00;;;;;;;;5059950;28;45167;-71
2023/12/16 13:20:15;;;;;;;;;12.75;8.00;;;;;;;;5058362;28;45242;-69
2023/12/16 13:22:41;;;;;;;;;18.50;15.00;;;;;;;;5059594;28;45502;-68
2023/12/16 13:25:11;;;;;;;;;14.75;11.75;;;;;;;;5053126;28;45475;-68
2023/12/16 13:27:36;;;;;;;;;13.00;9.75;;;;;;;;5059766;28;45289;-68
2023/12/16 13:30:01;;;;;;;;;11.50;10.00;;;;;;;;5054346;28;45442;-68
2023/12/16 13:32:28;;;;;;;;;18.25;14.25;;;;;;;;5059661;28;45177;-69
2023/12/16 13:34:53;;;;;;;;;16.75;13.50;;;;;;;;5052553;28;46378;-71
2023/12/16 13:37:18;;;;;;;;;10.50;10.50;;;;;;;;5059484;28;45374;-71
2023/12/16 13:39:43;;;;;;;;;13.25;13.25;;;;;;;;5055647;28;45254;-70
2023/12/16 13:42:08;;;;;;;;;12.00;9.25;;;;;;;;5059318;28;45165;-71
2023/12/16 13:44:34;;;;;;;;;4.75;1.25;;;;;;;;5051716;28;47183;-71
2023/12/16 13:46:59;;;;;;;;;17.75;12.50;;;;;;;;5059640;28;45237;-71
2023/12/16 13:49:24;;;;;;;;;13.75;13.75;;;;;;;;5052307;28;45441;-71
2023/12/16 13:51:49;;;;;;;;;12.75;9.50;;;;;;;;5057592;28;45934;-71
2023/12/16 13:54:14;;;;;;;;;13.00;9.50;;;;;;;;5057509;28;45433;-70
2023/12/16 13:56:40;;;;;;;;;13.75;10.75;;;;;;;;5059562;28;45267;-71
2023/12/16 13:59:05;;;;;;;;;9.25;7.25;;;;;;;;5057167;28;45541;-71
2023/12/16 14:01:30;;;;;;;;;27.25;23.75;;;;;;;;5065682;28;45751;-71
2023/12/16 14:03:55;;;;;;;;;19.25;17.00;;;;;;;;5057053;28;45383;-70
2023/12/16 14:06:21;;;;;;;;;15.25;11.50;;;;;;;;5055780;28;45185;-71
2023/12/16 14:08:46;;;;;;;;;10.75;10.75;;;;;;;;5055928;28;45655;-71
2023/12/16 14:11:11;;;;;;;;;15.50;14.50;;;;;;;;5059480;28;45327;-71
2023/12/16 14:13:36;;;;;;;;;18.50;15.00;;;;;;;;5058222;28;46148;-70
2023/12/16 14:16:02;;;;;;;;;13.25;7.75;;;;;;;;5057703;28;45273;-70
2023/12/16 14:18:28;;;;;;;;;10.00;8.25;;;;;;;;5059241;28;45373;-70
2023/12/16 14:20:53;;;;;;;;;9.25;8.25;;;;;;;;5056448;28;47208;-71
2023/12/16 14:23:18;;;;;;;;;11.25;8.25;;;;;;;;5057313;28;45538;-70
2023/12/16 14:25:43;;;;;;;;;10.00;8.00;;;;;;;;5057230;28;45479;-71
2023/12/16 14:28:09;;;;;;;;;10.75;7.00;;;;;;;;5058687;28;45441;-71
2023/12/16 14:30:34;;;;;;;;;10.33;7.67;;;;;;;;5057115;28;45408;-71
2023/12/16 14:32:59;;;;;;;;;8.33;7.00;;;;;;;;5058882;28;45276;-70
2023/12/16 14:35:24;;;;;;;;;10.50;7.25;;;;;;;;5049304;28;45733;-71
2023/12/16 14:37:49;;;;;;;;;8.50;6.75;;;;;;;;5058612;28;45324;-71
2023/12/16 14:40:15;;;;;;;;;10.00;7.00;;;;;;;;5050270;28;45849;-72
2023/12/16 14:42:40;;;;;;;;;4.75;4.75;;;;;;;;5058174;28;45340;-72
2023/12/16 14:45:05;;;;;;;;;7.25;6.00;;;;;;;;5052739;28;45370;-72
2023/12/16 14:47:30;;;;;;;;;8.75;6.00;;;;;;;;5058652;28;45196;-71
2023/12/16 14:49:56;;;;;;;;;16.50;10.00;;;;;;;;5050062;28;45828;-71
2023/12/16 14:52:21;;;;;;;;;11.00;7.25;;;;;;;;5057930;28;45335;-71
2023/12/16 14:54:46;;;;;;;;;8.00;6.25;;;;;;;;5052282;28;45216;-71
2023/12/16 14:57:11;;;;;;;;;8.00;6.00;;;;;;;;5058807;28;45229;-69
2023/12/16 14:59:37;;;;;;;;;7.00;6.00;;;;;;;;5052415;28;45267;-72
2023/12/16 15:02:02;;;;;;;;;12.00;6.75;;;;;;;;5058374;28;46433;-72
2023/12/16 15:04:28;;;;;;;;;10.75;5.00;;;;;;;;5053155;28;45250;-71
2023/12/16 15:06:57;;;;;;;;;8.25;7.00;;;;;;;;5058801;28;45362;-72
2023/12/16 15:09:23;;;;;;;;;7.25;5.50;;;;;;;;5054228;28;45312;-72
2023/12/16 15:11:48;;;;;;;;;6.00;5.00;;;;;;;;5056862;28;46527;-71
2023/12/16 15:14:15;;;;;;;;;7.50;5.50;;;;;;;;5055337;28;45291;-72
2023/12/16 15:16:40;;;;;;;;;5.00;3.50;;;;;;;;5073018;28;45279;-72
2023/12/16 15:19:07;;;;;;;;;5.75;5.00;;;;;;;;5055721;28;44840;-72
2023/12/16 15:21:32;;;;;;;;;6.25;6.00;;;;;;;;5057292;28;46332;-71
2023/12/16 15:23:58;;;;;;;;;12.25;7.00;;;;;;;;5057025;28;45172;-71
2023/12/16 15:26:23;;;;;;;;;9.00;6.00;;;;;;;;5059338;28;45211;-72
2023/12/16 15:28:48;;;;;;;;;11.00;7.00;;;;;;;;5057414;28;45327;-72
2023/12/16 15:31:13;;;;;;;;;7.50;5.00;;;;;;;;5059003;28;45319;-71
2023/12/16 15:33:38;;;;;;;;;10.00;6.25;;;;;;;;5058306;28;45220;-72
2023/12/16 15:36:05;;;;;;;;;11.75;8.25;;;;;;;;5051972;28;45280;-71
2023/12/16 15:38:30;;;;;;;;;7.50;6.25;;;;;;;;5058951;28;45334;-71
2023/12/16 15:40:55;;;;;;;;;12.75;10.25;;;;;;;;5052452;28;45394;-73
2023/12/16 15:43:21;;;;;;;;;9.75;7.00;;;;;;;;5058080;28;45319;-73
2023/12/16 15:45:46;;;;;;;;;8.50;8.25;;;;;;;;5050863;28;45445;-73
2023/12/16 15:48:11;;;;;;;;;10.00;8.25;;;;;;;;5048584;28;45759;-73
2023/12/16 15:50:37;;;;;;;;;11.00;10.00;;;;;;;;5050353;28;45739;-73
2023/12/16 15:53:03;;;;;;;;;15.00;11.00;;;;;;;;5050903;28;45359;-73
2023/12/16 15:55:29;;;;;;;;;13.25;10.00;;;;;;;;5051691;28;45434;-73
2023/12/16 15:57:54;;;;;;;;;32.50;21.00;;;;;;;;5056507;28;46099;-72
2023/12/16 16:00:19;;;;;;;;;20.25;16.50;;;;;;;;5051522;28;46658;-73
2023/12/16 16:02:47;;;;;;;;;12.50;12.25;;;;;;;;5056513;28;45467;-73
2023/12/16 16:05:12;;;;;;;;;29.50;23.00;;;;;;;;5051599;28;45177;-73
2023/12/16 16:07:37;;;;;;;;;19.25;17.50;;;;;;;;5057489;28;45449;-73
2023/12/16 16:10:04;;;;;;;;;52.25;39.50;;;;;;;;5052661;28;45321;-72
2023/12/16 16:12:29;;;;;;;;;51.00;39.75;;;;;;;;5057770;28;45230;-73
2023/12/16 16:14:54;;;;;;;;;51.75;39.25;;;;;;;;5054380;28;45430;-73
2023/12/16 16:17:19;;;;;;;;;49.75;36.00;;;;;;;;5055934;28;45365;-73
2023/12/16 16:19:44;;;;;;;;;23.25;21.50;;;;;;;;5054686;28;45358;-73
2023/12/16 16:22:12;;;;;;;;;24.25;22.75;;;;;;;;5056928;28;45438;-73
2023/12/16 16:24:38;;;;;;;;;19.50;18.25;;;;;;;;5055593;28;45419;-73
2023/12/16 16:27:03;;;;;;;;;18.25;16.00;;;;;;;;5057401;28;45330;-73
2023/12/16 16:29:28;;;;;;;;;27.50;21.50;;;;;;;;5055312;28;45323;-73
2023/12/16 16:31:53;;;;;;;;;13.25;10.50;;;;;;;;5059859;28;45392;-73
2023/12/16 16:34:18;;;;;;;;;29.25;25.50;;;;;;;;5056196;28;45529;-74
2023/12/16 16:36:44;;;;;;;;;20.25;19.50;;;;;;;;5057805;28;46432;-73
2023/12/16 16:39:09;;;;;;;;;17.50;17.50;;;;;;;;5062966;28;48567;-73
2023/12/16 16:41:34;;;;;;;;;23.00;17.00;;;;;;;;5060131;28;45429;-72
2023/12/16 16:44:00;;;;;;;;;17.50;17.50;;;;;;;;5058239;28;45261;-73
2023/12/16 16:46:25;;;;;;;;;20.50;19.00;;;;;;;;5060653;28;45358;-73
2023/12/16 16:48:51;;;;;;;;;24.00;21.00;;;;;;;;5059400;28;45328;-72
2023/12/16 16:51:18;;;;;;;;;22.50;20.50;;;;;;;;5057563;28;45347;-72
2023/12/16 16:53:44;;;;;;;;;25.00;21.25;;;;;;;;5058866;28;45258;-73
2023/12/16 16:56:09;;;;;;;;;24.75;23.00;;;;;;;;5058018;28;45246;-73
2023/12/16 16:58:36;;;;;;;;;27.00;23.25;;;;;;;;5058978;28;46616;-73
2023/12/16 17:01:01;;;;;;;;;33.50;25.00;;;;;;;;5055625;28;45254;-72
2023/12/16 17:03:26;;;;;;;;;33.75;28.50;;;;;;;;5061160;28;45145;-73
2023/12/16 17:05:52;;;;;;;;;21.25;20.00;;;;;;;;5054172;28;45692;-71
2023/12/16 17:08:18;;;;;;;;;24.25;22.50;;;;;;;;5059651;28;46718;-72
2023/12/16 17:10:43;;;;;;;;;26.50;24.00;;;;;;;;5056391;28;45350;-74
2023/12/16 17:13:09;;;;;;;;;27.25;23.50;;;;;;;;5061821;28;45335;-73
2023/12/16 17:15:34;;;;;;;;;29.50;25.50;;;;;;;;5058944;28;45524;-73
2023/12/16 17:18:00;;;;;;;;;31.25;24.00;;;;;;;;5061311;28;45368;-73
2023/12/16 17:20:25;;;;;;;;;27.50;23.75;;;;;;;;5059309;28;45357;-72
2023/12/16 17:22:50;;;;;;;;;36.25;26.25;;;;;;;;5059860;28;45338;-73
2023/12/16 17:25:16;;;;;;;;;32.75;29.75;;;;;;;;5054895;28;45545;-72
2023/12/16 17:27:42;;;;;;;;;35.00;30.75;;;;;;;;5059521;28;45286;-73
2023/12/16 17:30:07;;;;;;;;;37.75;31.00;;;;;;;;5054510;28;45320;-73
2023/12/16 17:32:33;;;;;;;;;31.75;30.00;;;;;;;;5059082;28;45231;-72
2023/12/16 17:34:58;;;;;;;;;42.75;33.25;;;;;;;;5057217;28;47433;-73
2023/12/16 17:37:23;;;;;;;;;53.00;40.25;;;;;;;;5059145;28;47976;-72
2023/12/16 17:39:49;;;;;;;;;36.75;33.75;;;;;;;;5056874;28;45390;-73
2023/12/16 17:42:14;;;;;;;;;44.25;35.75;;;;;;;;5056706;28;45339;-72
2023/12/16 17:44:40;;;;;;;;;44.75;37.25;;;;;;;;5054060;28;45264;-73
2023/12/16 17:47:05;;;;;;;;;47.50;38.25;;;;;;;;5058688;28;48031;-72
2023/12/16 17:49:32;;;;;;;;;45.25;39.00;;;;;;;;5053504;28;45124;-72
2023/12/16 17:51:57;;;;;;;;;49.75;40.50;;;;;;;;5058776;28;45387;-72
2023/12/16 17:54:22;;;;;;;;;50.25;38.75;;;;;;;;5057883;28;45450;-73
2023/12/16 17:56:48;;;;;;;;;52.50;40.50;;;;;;;;5058738;28;45917;-73
2023/12/16 17:59:14;;;;;;;;;60.25;48.00;;;;;;;;5057438;28;45362;-74
2023/12/16 18:01:40;;;;;;;;;46.25;38.50;;;;;;;;5059635;28;44800;-73
2023/12/16 18:04:05;;;;;;;;;51.50;40.00;;;;;;;;5057072;28;45294;-73
2023/12/16 18:06:31;;;;;;;;;51.50;41.50;;;;;;;;5057711;28;45376;-72
2023/12/16 18:08:56;;;;;;;;;54.25;43.75;;;;;;;;5056060;28;45379;-73
2023/12/16 18:11:22;;;;;;;;;52.75;41.75;;;;;;;;5055106;28;45520;-72
2023/12/16 18:13:47;;;;;;;;;52.25;40.75;;;;;;;;5057184;28;45626;-73
2023/12/16 18:16:12;;;;;;;;;58.50;44.50;;;;;;;;5054584;28;48116;-73
2023/12/16 18:18:41;;;;;;;;;61.75;49.25;;;;;;;;5060411;28;45480;-73
2023/12/16 18:21:10;;;;;;;;;73.00;55.50;;;;;;;;5060308;28;45161;-72
2023/12/16 18:23:36;;;;;;;;;70.50;55.75;;;;;;;;5060022;28;45313;-72
2023/12/16 18:26:02;;;;;;;;;73.00;53.50;;;;;;;;5051397;28;48064;-72
2023/12/16 18:28:28;;;;;;;;;66.75;52.50;;;;;;;;5060501;28;45426;-71
2023/12/16 18:30:54;;;;;;;;;73.00;53.75;;;;;;;;5070069;28;45318;-73
2023/12/16 18:33:20;;;;;;;;;69.00;55.50;;;;;;;;5060490;28;45421;-73
2023/12/16 18:35:45;;;;;;;;;77.75;60.25;;;;;;;;5058712;28;47168;-72
2023/12/16 18:38:11;;;;;;;;;82.25;64.25;;;;;;;;5058952;28;45491;-72
2023/12/16 18:40:36;;;;;;;;;84.67;66.33;;;;;;;;5053499;28;45299;-73
2023/12/16 18:43:02;;;;;;;;;79.33;60.00;;;;;;;;5060680;28;45254;-73
2023/12/16 18:45:29;;;;;;;;;86.67;67.00;;;;;;;;5054765;28;46016;-73